createdAt,value
2022-10-24T00:01:23.417Z,19.00
2022-10-24T00:03:51.393Z,18.90
2022-10-24T00:06:20.186Z,18.90
2022-10-24T00:08:49.036Z,18.90
2022-10-24T00:11:25.859Z,18.90
2022-10-24T00:13:55.562Z,18.90
2022-10-24T00:16:23.127Z,18.90
2022-10-24T00:18:50.477Z,18.90
2022-10-24T00:21:17.866Z,18.90
2022-10-24T00:23:45.404Z,18.90
2022-10-24T00:26:13.384Z,18.90
2022-10-24T00:28:41.253Z,18.90
2022-10-24T00:31:12.447Z,18.80
2022-10-24T00:33:39.891Z,18.80
2022-10-24T00:36:15.232Z,18.80
2022-10-24T00:38:42.932Z,18.70
2022-10-24T00:41:19.841Z,18.70
2022-10-24T00:43:47.454Z,18.70
2022-10-24T00:46:17.042Z,18.70
2022-10-24T00:48:48.480Z,18.70
2022-10-24T00:51:18.793Z,18.70
2022-10-24T00:53:50.107Z,18.70
2022-10-24T00:56:20.308Z,18.70
2022-10-24T00:58:48.852Z,18.70
2022-10-24T01:01:16.390Z,18.60
2022-10-24T01:03:43.887Z,18.60
2022-10-24T01:06:48.353Z,18.60
2022-10-24T01:09:24.748Z,18.60
2022-10-24T01:12:03.493Z,18.60
2022-10-24T01:14:51.952Z,18.60
2022-10-24T01:17:22.972Z,18.60
2022-10-24T01:20:03.764Z,18.50
2022-10-24T01:22:37.450Z,18.50
2022-10-24T01:25:23.650Z,18.50
2022-10-24T01:27:56.878Z,18.50
2022-10-24T01:30:24.808Z,18.50
2022-10-24T01:33:00.966Z,18.50
2022-10-24T01:35:58.649Z,18.50
2022-10-24T01:38:33.491Z,18.50
2022-10-24T01:41:12.201Z,18.50
2022-10-24T01:44:09.711Z,18.50
2022-10-24T01:47:04.828Z,18.50
2022-10-24T01:49:36.389Z,18.50
2022-10-24T01:52:09.981Z,18.40
2022-10-24T01:54:40.025Z,18.40
2022-10-24T01:57:07.906Z,18.40
2022-10-24T01:59:43.069Z,18.40
2022-10-24T02:02:10.386Z,18.50
2022-10-24T02:04:44.700Z,18.40
2022-10-24T02:07:14.085Z,18.40
2022-10-24T02:09:43.616Z,18.40
2022-10-24T02:12:14.319Z,18.40
2022-10-24T02:14:47.652Z,18.40
2022-10-24T02:17:15.229Z,18.40
2022-10-24T02:19:44.047Z,18.40
2022-10-24T02:22:22.182Z,18.40
2022-10-24T02:25:07.584Z,18.40
2022-10-24T02:27:43.812Z,18.50
2022-10-24T02:30:15.905Z,18.40
2022-10-24T02:32:53.428Z,18.40
2022-10-24T02:35:27.133Z,18.40
2022-10-24T02:38:05.643Z,18.40
2022-10-24T02:40:33.897Z,18.30
2022-10-24T02:43:03.548Z,18.30
2022-10-24T02:45:31.348Z,18.30
2022-10-24T02:48:02.962Z,18.30
2022-10-24T02:50:32.165Z,18.40
2022-10-24T02:52:59.710Z,18.30
2022-10-24T02:55:27.062Z,18.40
2022-10-24T02:57:54.435Z,18.40
2022-10-24T03:00:22.578Z,18.30
2022-10-24T03:02:49.923Z,18.30
2022-10-24T03:05:17.433Z,18.30
2022-10-24T03:07:44.918Z,18.20
2022-10-24T03:10:12.350Z,18.20
2022-10-24T03:12:39.664Z,18.20
2022-10-24T03:15:07.453Z,18.20
2022-10-24T03:17:34.810Z,18.20
2022-10-24T03:20:02.140Z,18.10
2022-10-24T03:22:30.735Z,18.10
2022-10-24T03:25:02.133Z,18.10
2022-10-24T03:27:30.485Z,18.10
2022-10-24T03:29:57.784Z,18.00
2022-10-24T03:34:57.402Z,18.00
2022-10-24T03:37:24.797Z,18.00
2022-10-24T03:39:52.125Z,18.00
2022-10-24T03:42:19.477Z,18.00
2022-10-24T03:44:46.886Z,18.00
2022-10-24T03:47:14.276Z,18.00
2022-10-24T03:49:41.621Z,18.00
2022-10-24T03:52:09.049Z,18.00
2022-10-24T03:54:36.377Z,18.00
2022-10-24T03:57:03.861Z,18.00
2022-10-24T03:59:31.584Z,18.00
2022-10-24T04:02:01.199Z,18.00
2022-10-24T04:04:29.054Z,18.00
2022-10-24T04:06:56.432Z,18.00
2022-10-24T04:09:24.130Z,18.00
2022-10-24T04:11:53.437Z,18.00
2022-10-24T04:14:21.271Z,18.00
2022-10-24T04:16:48.969Z,18.00
2022-10-24T04:19:20.125Z,18.00
2022-10-24T04:21:48.075Z,18.00
2022-10-24T04:24:16.541Z,18.00
2022-10-24T04:26:44.039Z,18.00
2022-10-24T04:29:11.774Z,18.00
2022-10-24T04:31:39.101Z,18.00
2022-10-24T04:34:06.417Z,18.10
2022-10-24T04:36:34.655Z,18.10
2022-10-24T04:39:02.540Z,18.10
2022-10-24T04:41:29.905Z,18.10
2022-10-24T04:43:57.527Z,18.00
2022-10-24T04:46:24.827Z,18.00
2022-10-24T04:48:53.548Z,18.00
2022-10-24T04:51:22.480Z,17.90
2022-10-24T04:53:51.127Z,18.00
2022-10-24T04:56:19.450Z,17.90
2022-10-24T04:58:47.017Z,17.90
2022-10-24T05:01:14.430Z,17.90
2022-10-24T05:03:41.801Z,17.90
2022-10-24T05:06:09.182Z,18.00
2022-10-24T05:08:36.524Z,17.90
2022-10-24T05:11:04.211Z,17.90
2022-10-24T05:13:34.413Z,17.80
2022-10-24T05:16:05.051Z,17.80
2022-10-24T05:18:33.107Z,17.80
2022-10-24T05:21:01.039Z,17.80
2022-10-24T05:23:28.804Z,17.80
2022-10-24T05:25:56.137Z,17.80
2022-10-24T05:28:23.471Z,17.80
2022-10-24T05:30:50.806Z,17.80
2022-10-24T05:33:18.218Z,17.80
2022-10-24T05:35:45.755Z,17.80
2022-10-24T05:38:13.044Z,17.80
2022-10-24T05:40:40.521Z,17.80
2022-10-24T05:43:08.375Z,17.80
2022-10-24T05:45:35.659Z,17.80
2022-10-24T05:48:03.156Z,17.80
2022-10-24T05:50:31.100Z,17.80
2022-10-24T05:52:58.465Z,17.80
2022-10-24T05:55:25.777Z,17.80
2022-10-24T05:57:53.083Z,17.80
2022-10-24T06:00:20.487Z,17.90
2022-10-24T06:02:47.860Z,17.90
2022-10-24T06:05:15.637Z,17.90
2022-10-24T06:07:43.448Z,17.90
2022-10-24T06:10:11.974Z,17.90
2022-10-24T06:12:39.541Z,17.90
2022-10-24T06:15:08.549Z,17.90
2022-10-24T06:17:36.381Z,17.90
2022-10-24T06:20:04.224Z,17.90
2022-10-24T06:22:31.754Z,17.90
2022-10-24T06:25:00.206Z,17.90
2022-10-24T06:27:27.884Z,17.90
2022-10-24T06:29:55.178Z,18.00
2022-10-24T06:32:22.616Z,18.00
2022-10-24T06:34:50.832Z,18.00
2022-10-24T06:37:18.463Z,18.00
2022-10-24T06:39:45.867Z,18.10
2022-10-24T06:42:13.315Z,18.20
2022-10-24T06:44:42.024Z,18.30
2022-10-24T06:47:09.344Z,18.30
2022-10-24T06:49:36.669Z,18.40
2022-10-24T06:52:04.138Z,18.60
2022-10-24T06:54:32.072Z,18.70
2022-10-24T06:56:59.496Z,18.80
2022-10-24T06:59:27.109Z,18.80
2022-10-24T07:01:54.505Z,18.90
2022-10-24T07:04:22.091Z,19.00
2022-10-24T07:06:49.368Z,19.00
2022-10-24T07:09:17.309Z,19.10
2022-10-24T07:11:45.269Z,19.10
2022-10-24T07:14:12.817Z,19.10
2022-10-24T07:16:40.504Z,19.20
2022-10-24T07:19:08.853Z,19.20
2022-10-24T07:21:36.299Z,19.20
2022-10-24T07:24:04.284Z,19.30
2022-10-24T07:26:32.141Z,19.30
2022-10-24T07:31:32.749Z,19.30
2022-10-24T07:34:01.972Z,19.40
2022-10-24T07:36:30.599Z,19.50
2022-10-24T07:38:59.451Z,19.50
2022-10-24T07:41:28.836Z,19.50
2022-10-24T07:43:57.755Z,19.60
2022-10-24T07:46:25.854Z,19.70
2022-10-24T07:48:54.139Z,19.80
2022-10-24T07:51:21.980Z,19.80
2022-10-24T07:53:49.946Z,19.90
2022-10-24T07:56:17.859Z,19.90
2022-10-24T07:58:46.701Z,19.90
2022-10-24T08:01:20.199Z,19.90
2022-10-24T08:03:48.157Z,20.10
2022-10-24T08:06:19.049Z,20.20
2022-10-24T08:08:46.882Z,20.30
2022-10-24T08:11:21.702Z,20.50
2022-10-24T08:13:50.967Z,20.60
2022-10-24T08:16:20.899Z,20.70
2022-10-24T08:18:49.546Z,20.80
2022-10-24T08:21:18.884Z,20.80
2022-10-24T08:23:48.720Z,21.00
2022-10-24T08:26:18.822Z,21.20
2022-10-24T08:28:47.025Z,21.30
2022-10-24T08:31:17.369Z,21.40
2022-10-24T08:33:45.020Z,21.50
2022-10-24T08:36:34.146Z,21.60
2022-10-24T08:39:02.584Z,21.80
2022-10-24T08:41:39.998Z,21.90
2022-10-24T08:44:14.660Z,22.00
2022-10-24T08:46:51.056Z,22.00
2022-10-24T08:49:50.266Z,22.10
2022-10-24T08:53:05.377Z,22.10
2022-10-24T08:55:58.841Z,22.10
2022-10-24T08:58:40.586Z,22.10
2022-10-24T09:01:29.607Z,22.10
2022-10-24T09:04:01.532Z,22.10
2022-10-24T09:06:31.544Z,22.00
2022-10-24T09:09:26.695Z,21.90
2022-10-24T09:12:02.004Z,21.80
2022-10-24T09:14:31.790Z,21.70
2022-10-24T09:20:16.714Z,21.60
2022-10-24T09:22:44.598Z,21.60
2022-10-24T09:25:23.967Z,21.60
2022-10-24T09:27:52.091Z,21.60
2022-10-24T09:30:29.948Z,21.70
2022-10-24T09:33:12.817Z,21.80
2022-10-24T09:35:40.667Z,22.10
2022-10-24T09:38:22.909Z,22.40
2022-10-24T09:40:52.384Z,22.80
2022-10-24T09:43:26.081Z,23.00
2022-10-24T09:45:59.307Z,23.20
2022-10-24T09:48:38.521Z,23.20
2022-10-24T09:51:07.561Z,23.30
2022-10-24T09:53:39.581Z,23.30
2022-10-24T09:56:11.032Z,23.50
2022-10-24T09:58:38.783Z,23.70
2022-10-24T10:01:15.158Z,24.00
2022-10-24T10:03:43.776Z,24.40
2022-10-24T10:06:21.460Z,25.00
2022-10-24T10:08:55.724Z,25.60
2022-10-24T10:11:35.107Z,25.80
2022-10-24T10:14:24.883Z,26.10
2022-10-24T10:17:05.258Z,26.10
2022-10-24T10:19:38.440Z,26.20
2022-10-24T10:22:07.377Z,26.30
2022-10-24T10:24:43.285Z,26.40
2022-10-24T10:27:34.111Z,26.50
2022-10-24T10:30:14.990Z,26.30
2022-10-24T10:32:57.887Z,26.80
2022-10-24T10:35:59.733Z,27.10
2022-10-24T10:38:57.992Z,27.20
2022-10-24T10:41:46.029Z,26.90
2022-10-24T10:44:34.977Z,26.70
2022-10-24T10:47:17.262Z,26.80
2022-10-24T10:49:48.431Z,27.80
2022-10-24T10:52:23.140Z,29.10
2022-10-24T10:54:59.408Z,30.00
2022-10-24T10:57:56.625Z,30.90
2022-10-24T11:00:40.171Z,32.40
2022-10-24T11:03:13.004Z,33.50
2022-10-24T11:05:59.076Z,34.80
2022-10-24T11:09:12.363Z,35.30
2022-10-24T11:11:44.162Z,35.70
2022-10-24T11:14:29.637Z,36.20
2022-10-24T11:17:02.978Z,37.10
2022-10-24T11:19:51.940Z,37.80
2022-10-24T11:22:30.553Z,38.50
2022-10-24T11:25:07.230Z,38.10
2022-10-24T11:27:44.735Z,37.50
2022-10-24T11:30:18.169Z,38.30
2022-10-24T11:33:03.673Z,39.20
2022-10-24T11:35:33.264Z,39.20
2022-10-24T11:38:15.137Z,39.50
2022-10-24T11:40:46.107Z,40.00
2022-10-24T11:43:30.717Z,39.20
2022-10-24T11:46:05.692Z,39.50
2022-10-24T11:48:44.084Z,38.60
2022-10-24T11:51:24.686Z,39.50
2022-10-24T11:54:03.287Z,39.90
2022-10-24T11:56:45.817Z,40.30
2022-10-24T11:59:18.863Z,40.20
2022-10-24T12:01:55.479Z,39.50
2022-10-24T12:04:44.369Z,38.90
2022-10-24T12:07:20.591Z,38.60
2022-10-24T12:09:50.606Z,38.70
2022-10-24T12:12:42.698Z,37.60
2022-10-24T12:15:21.844Z,36.80
2022-10-24T12:18:11.100Z,36.40
2022-10-24T12:20:40.180Z,37.00
2022-10-24T12:23:16.732Z,37.40
2022-10-24T12:25:47.353Z,37.30
2022-10-24T12:28:25.832Z,37.80
2022-10-24T12:31:23.933Z,38.00
2022-10-24T12:34:15.515Z,37.20
2022-10-24T12:37:11.251Z,36.20
2022-10-24T12:39:45.786Z,34.80
2022-10-24T12:42:36.628Z,33.00
2022-10-24T12:45:13.154Z,32.60
2022-10-24T12:47:44.557Z,32.20
2022-10-24T12:50:23.701Z,32.00
2022-10-24T12:53:02.649Z,32.40
2022-10-24T12:55:34.204Z,32.00
2022-10-24T12:58:21.144Z,31.10
2022-10-24T13:01:34.542Z,30.60
2022-10-24T13:04:14.000Z,29.90
2022-10-24T13:07:08.176Z,29.30
2022-10-24T13:09:47.093Z,28.90
2022-10-24T13:12:42.100Z,28.50
2022-10-24T13:15:39.770Z,28.10
2022-10-24T13:18:35.261Z,28.10
2022-10-24T13:21:53.022Z,27.90
2022-10-24T13:24:26.591Z,27.70
2022-10-24T13:26:55.718Z,27.40
2022-10-24T13:29:28.921Z,27.20
2022-10-24T13:32:18.749Z,27.10
2022-10-24T13:34:53.922Z,26.80
2022-10-24T13:37:37.808Z,26.70
2022-10-24T13:40:08.647Z,26.60
2022-10-24T13:42:40.797Z,26.40
2022-10-24T13:45:27.427Z,26.20
2022-10-24T13:48:22.984Z,26.10
2022-10-24T13:51:03.736Z,26.00
2022-10-24T13:53:35.868Z,26.00
2022-10-24T13:56:10.425Z,25.90
2022-10-24T13:58:44.282Z,25.80
2022-10-24T14:01:25.701Z,25.80
2022-10-24T14:03:55.174Z,25.70
2022-10-24T14:06:30.829Z,25.70
2022-10-24T14:09:07.185Z,25.60
2022-10-24T14:11:40.594Z,25.60
2022-10-24T14:14:14.881Z,25.50
2022-10-24T14:16:42.158Z,25.50
2022-10-24T14:19:17.723Z,25.40
2022-10-24T14:21:47.629Z,25.40
2022-10-24T14:24:20.739Z,25.40
2022-10-24T14:26:49.055Z,25.50
2022-10-24T14:29:28.562Z,25.40
2022-10-24T14:32:13.422Z,25.30
2022-10-24T14:34:41.252Z,25.30
2022-10-24T14:37:15.153Z,25.20
2022-10-24T14:39:43.336Z,25.10
2022-10-24T14:42:16.693Z,25.00
2022-10-24T14:44:46.439Z,25.00
2022-10-24T14:47:22.255Z,25.00
2022-10-24T14:49:49.763Z,25.00
2022-10-24T14:52:20.561Z,24.90
2022-10-24T14:55:14.327Z,24.90
2022-10-24T14:57:49.047Z,24.90
2022-10-24T15:00:22.989Z,24.80
2022-10-24T15:02:53.273Z,24.80
2022-10-24T15:05:20.615Z,24.70
2022-10-24T15:08:16.796Z,24.70
2022-10-24T15:10:42.877Z,24.60
2022-10-24T15:13:21.271Z,24.40
2022-10-24T15:15:55.060Z,24.40
2022-10-24T15:18:24.008Z,24.40
2022-10-24T15:20:54.692Z,24.30
2022-10-24T15:23:28.624Z,24.30
2022-10-24T15:26:11.650Z,24.40
2022-10-24T15:29:05.261Z,24.40
2022-10-24T15:31:33.791Z,24.30
2022-10-24T15:34:01.066Z,24.30
2022-10-24T15:36:39.371Z,24.20
2022-10-24T15:39:21.926Z,24.10
2022-10-24T15:41:49.497Z,24.10
2022-10-24T15:44:20.788Z,24.10
2022-10-24T15:46:49.408Z,24.20
2022-10-24T15:49:16.968Z,24.20
2022-10-24T15:51:49.899Z,24.20
2022-10-24T15:54:20.862Z,24.20
2022-10-24T15:56:48.541Z,24.20
2022-10-24T15:59:17.439Z,24.20
2022-10-24T16:01:51.246Z,24.20
2022-10-24T16:04:20.207Z,24.20
2022-10-24T16:06:48.855Z,24.20
2022-10-24T16:09:22.925Z,24.10
2022-10-24T16:11:50.195Z,24.00
2022-10-24T16:14:19.755Z,24.00
2022-10-24T16:16:47.461Z,23.90
2022-10-24T16:19:14.911Z,24.00
2022-10-24T16:21:42.357Z,23.90
2022-10-24T16:24:10.530Z,23.80
2022-10-24T16:26:38.183Z,23.80
2022-10-24T16:29:05.961Z,23.80
2022-10-24T16:31:34.050Z,23.80
2022-10-24T16:34:01.417Z,23.70
2022-10-24T16:36:29.144Z,23.70
2022-10-24T16:38:56.529Z,23.60
2022-10-24T16:41:25.603Z,23.60
2022-10-24T16:43:57.418Z,23.50
2022-10-24T16:46:27.120Z,23.50
2022-10-24T16:48:54.990Z,23.40
2022-10-24T16:51:32.445Z,23.40
2022-10-24T16:54:01.202Z,23.40
2022-10-24T16:56:29.561Z,23.40
2022-10-24T16:58:57.177Z,23.40
2022-10-24T17:01:27.196Z,23.40
2022-10-24T17:03:54.963Z,23.40
2022-10-24T17:06:22.495Z,23.40
2022-10-24T17:08:49.881Z,23.30
2022-10-24T17:11:43.316Z,23.30
2022-10-24T17:14:04.577Z,23.20
2022-10-24T17:16:32.050Z,23.20
2022-10-24T17:19:14.604Z,23.20
2022-10-24T17:21:43.137Z,23.10
2022-10-24T17:24:12.027Z,23.10
2022-10-24T17:26:41.084Z,23.10
2022-10-24T17:29:12.204Z,23.00
2022-10-24T17:31:39.644Z,23.00
2022-10-24T17:34:07.161Z,23.00
2022-10-24T17:36:38.079Z,22.90
2022-10-24T17:39:27.072Z,22.90
2022-10-24T17:41:54.639Z,22.90
2022-10-24T17:44:22.860Z,22.90
2022-10-24T17:46:54.651Z,22.90
2022-10-24T17:49:25.711Z,22.80
2022-10-24T17:51:53.082Z,22.80
2022-10-24T17:54:20.436Z,22.70
2022-10-24T17:56:47.971Z,22.70
2022-10-24T17:59:15.323Z,22.70
2022-10-24T18:01:43.154Z,22.70
2022-10-24T18:04:11.441Z,22.60
2022-10-24T18:06:42.222Z,22.60
2022-10-24T18:09:11.028Z,22.50
2022-10-24T18:11:39.883Z,22.50
2022-10-24T18:14:07.686Z,22.50
2022-10-24T18:16:37.577Z,22.50
2022-10-24T18:19:05.898Z,22.50
2022-10-24T18:21:33.466Z,22.50
2022-10-24T18:24:00.796Z,22.50
2022-10-24T18:26:28.581Z,22.40
2022-10-24T18:28:56.211Z,22.40
2022-10-24T18:31:26.440Z,22.30
2022-10-24T18:33:54.405Z,22.30
2022-10-24T18:36:24.745Z,22.20
2022-10-24T18:38:54.513Z,22.20
2022-10-24T18:41:44.496Z,22.10
2022-10-24T18:44:22.334Z,22.10
2022-10-24T18:46:51.522Z,22.10
2022-10-24T18:49:18.979Z,22.10
2022-10-24T18:52:11.205Z,22.10
2022-10-24T18:55:07.806Z,22.20
2022-10-24T18:57:36.591Z,22.20
2022-10-24T19:00:05.641Z,22.20
2022-10-24T19:02:57.161Z,22.10
2022-10-24T19:05:31.812Z,22.10
2022-10-24T19:07:59.209Z,22.10
2022-10-24T19:10:28.178Z,22.10
2022-10-24T19:12:57.315Z,22.10
2022-10-24T19:15:24.915Z,22.20
2022-10-24T19:17:52.278Z,22.20
2022-10-24T19:20:22.228Z,22.20
2022-10-24T19:22:49.974Z,22.20
2022-10-24T19:25:17.424Z,22.10
2022-10-24T19:27:45.280Z,22.10
2022-10-24T19:30:13.292Z,22.00
2022-10-24T19:32:40.689Z,21.90
2022-10-24T19:35:08.276Z,21.90
2022-10-24T19:37:37.121Z,21.80
2022-10-24T19:40:05.222Z,21.80
2022-10-24T19:42:34.522Z,21.70
2022-10-24T19:45:02.201Z,21.60
2022-10-24T19:47:29.565Z,21.60
2022-10-24T19:49:56.899Z,21.60
2022-10-24T19:52:24.197Z,21.60
2022-10-24T19:54:51.561Z,21.70
2022-10-24T19:57:18.873Z,21.70
2022-10-24T19:59:46.127Z,21.70
2022-10-24T20:02:13.574Z,21.70
2022-10-24T20:04:41.952Z,21.70
2022-10-24T20:07:10.050Z,21.60
2022-10-24T20:09:37.642Z,21.60
2022-10-24T20:12:05.804Z,21.50
2022-10-24T20:14:33.198Z,21.50
2022-10-24T20:17:00.588Z,21.40
2022-10-24T20:19:27.966Z,21.40
2022-10-24T20:21:56.857Z,21.30
2022-10-24T20:24:27.429Z,21.20
2022-10-24T20:26:54.964Z,21.20
2022-10-24T20:29:22.352Z,21.20
2022-10-24T20:31:49.716Z,21.30
2022-10-24T20:34:17.426Z,21.30
2022-10-24T20:36:47.330Z,21.20
2022-10-24T20:39:21.136Z,21.20
2022-10-24T20:41:51.754Z,21.20
2022-10-24T20:44:21.840Z,21.20
2022-10-24T20:46:49.208Z,21.20
2022-10-24T20:49:16.510Z,21.10
2022-10-24T20:51:43.846Z,21.10
2022-10-24T20:54:11.137Z,21.10
2022-10-24T20:56:42.341Z,21.10
2022-10-24T20:59:12.986Z,21.10
2022-10-24T21:01:41.072Z,21.00
2022-10-24T21:04:08.631Z,21.00
2022-10-24T21:06:35.970Z,21.00
2022-10-24T21:09:05.228Z,21.10
2022-10-24T21:11:34.597Z,21.10
2022-10-24T21:14:04.898Z,21.00
2022-10-24T21:16:32.909Z,21.00
2022-10-24T21:19:00.837Z,20.90
2022-10-24T21:21:28.404Z,20.90
2022-10-24T21:24:02.400Z,20.80
2022-10-24T21:26:34.850Z,20.80
2022-10-24T21:29:09.299Z,20.80
2022-10-24T21:31:51.480Z,20.80
2022-10-24T21:34:19.123Z,20.80
2022-10-24T21:36:46.501Z,20.80
2022-10-24T21:39:15.792Z,20.80
2022-10-24T21:41:43.460Z,20.70
2022-10-24T21:44:10.918Z,20.70
2022-10-24T21:46:38.380Z,20.70
2022-10-24T21:49:05.673Z,20.70
2022-10-24T21:51:35.808Z,20.70
2022-10-24T21:54:06.756Z,20.70
2022-10-24T21:56:38.999Z,20.60
2022-10-24T21:59:11.085Z,20.60
2022-10-24T22:01:39.431Z,20.60
2022-10-24T22:04:07.570Z,20.60
2022-10-24T22:06:35.915Z,20.60
2022-10-24T22:09:05.668Z,20.60
2022-10-24T22:11:34.537Z,20.60
2022-10-24T22:14:03.407Z,20.50
2022-10-24T22:16:32.120Z,20.50
2022-10-24T22:19:03.477Z,20.50
2022-10-24T22:21:41.515Z,20.50
2022-10-24T22:24:14.948Z,20.40
2022-10-24T22:26:42.556Z,20.40
2022-10-24T22:29:12.772Z,20.40
2022-10-24T22:31:40.638Z,20.40
2022-10-24T22:34:08.625Z,20.40
2022-10-24T22:36:44.994Z,20.30
2022-10-24T22:39:15.806Z,20.30
2022-10-24T22:41:44.519Z,20.40
2022-10-24T22:44:13.867Z,20.30
2022-10-24T22:47:08.291Z,20.40
2022-10-24T22:50:13.417Z,20.30
2022-10-24T22:52:41.025Z,20.40
2022-10-24T22:55:34.530Z,20.40
2022-10-24T22:58:02.410Z,20.40
2022-10-24T23:00:30.258Z,20.40
2022-10-24T23:03:08.686Z,20.40
2022-10-24T23:05:48.663Z,20.40
2022-10-24T23:08:38.032Z,20.40
2022-10-24T23:11:05.776Z,20.30
2022-10-24T23:13:33.441Z,20.30
2022-10-24T23:16:08.690Z,20.20
2022-10-24T23:18:36.307Z,20.20
2022-10-24T23:21:26.803Z,20.20
2022-10-24T23:23:54.279Z,20.20
2022-10-24T23:26:49.587Z,20.20
2022-10-24T23:29:28.224Z,20.10
2022-10-24T23:31:55.940Z,20.10
2022-10-24T23:34:23.529Z,20.10
2022-10-24T23:36:53.032Z,20.10
2022-10-24T23:41:53.324Z,20.20
2022-10-24T23:44:20.998Z,20.20
2022-10-24T23:46:59.387Z,20.20
2022-10-24T23:49:29.431Z,20.20
2022-10-24T23:52:25.301Z,20.20
2022-10-24T23:54:52.811Z,20.20
2022-10-24T23:57:20.945Z,20.20
2022-10-24T23:59:48.268Z,20.20
